sensor_id;sensor_type;location;lat;lon;timestamp;temperature;humidity
6841;DHT22;3458;53.678;14.080;2022-12-29T00:01:55;7.00;99.90
6841;DHT22;3458;53.678;14.080;2022-12-29T00:04:21;7.00;99.90
6841;DHT22;3458;53.678;14.080;2022-12-29T00:06:47;7.00;99.90
6841;DHT22;3458;53.678;14.080;2022-12-29T00:09:15;7.00;99.90
6841;DHT22;3458;53.678;14.080;2022-12-29T00:11:41;6.90;99.90
6841;DHT22;3458;53.678;14.080;2022-12-29T00:14:08;7.00;99.90
6841;DHT22;3458;53.678;14.080;2022-12-29T00:16:53;6.90;99.90
6841;DHT22;3458;53.678;14.080;2022-12-29T00:19:19;6.90;99.90
6841;DHT22;3458;53.678;14.080;2022-12-29T00:22:03;6.90;99.90
6841;DHT22;3458;53.678;14.080;2022-12-29T00:24:47;6.90;99.90
6841;DHT22;3458;53.678;14.080;2022-12-29T00:27:32;6.90;99.90
6841;DHT22;3458;53.678;14.080;2022-12-29T00:30:18;6.90;99.90
6841;DHT22;3458;53.678;14.080;2022-12-29T00:33:17;6.90;99.90
6841;DHT22;3458;53.678;14.080;2022-12-29T00:38:35;7.00;99.90
6841;DHT22;3458;53.678;14.080;2022-12-29T00:41:20;7.00;99.90
6841;DHT22;3458;53.678;14.080;2022-12-29T00:44:05;7.00;99.90
6841;DHT22;3458;53.678;14.080;2022-12-29T00:46:39;7.00;99.90
6841;DHT22;3458;53.678;14.080;2022-12-29T00:49:06;7.00;99.90
6841;DHT22;3458;53.678;14.080;2022-12-29T00:51:50;7.10;99.90
6841;DHT22;3458;53.678;14.080;2022-12-29T00:54:16;7.10;99.90
6841;DHT22;3458;53.678;14.080;2022-12-29T00:56:42;7.10;99.90
6841;DHT22;3458;53.678;14.080;2022-12-29T00:59:10;7.10;99.90
6841;DHT22;3458;53.678;14.080;2022-12-29T01:01:37;7.10;99.90
6841;DHT22;3458;53.678;14.080;2022-12-29T01:04:03;7.20;99.90
6841;DHT22;3458;53.678;14.080;2022-12-29T01:06:29;7.20;99.90
6841;DHT22;3458;53.678;14.080;2022-12-29T01:08:54;7.20;99.90
6841;DHT22;3458;53.678;14.080;2022-12-29T01:11:39;7.20;99.90
6841;DHT22;3458;53.678;14.080;2022-12-29T01:14:05;7.20;99.90
6841;DHT22;3458;53.678;14.080;2022-12-29T01:16:31;7.20;99.90
6841;DHT22;3458;53.678;14.080;2022-12-29T01:18:57;7.20;99.90
6841;DHT22;3458;53.678;14.080;2022-12-29T01:21:23;7.20;99.90
6841;DHT22;3458;53.678;14.080;2022-12-29T01:23:48;7.20;99.90
6841;DHT22;3458;53.678;14.080;2022-12-29T01:26:16;7.20;99.90
6841;DHT22;3458;53.678;14.080;2022-12-29T01:28:42;7.20;99.90
6841;DHT22;3458;53.678;14.080;2022-12-29T01:31:12;7.20;99.90
6841;DHT22;3458;53.678;14.080;2022-12-29T01:33:38;7.20;99.90
6841;DHT22;3458;53.678;14.080;2022-12-29T01:36:06;7.30;99.90
6841;DHT22;3458;53.678;14.080;2022-12-29T01:38:33;7.30;99.90
6841;DHT22;3458;53.678;14.080;2022-12-29T01:40:59;7.30;99.90
6841;DHT22;3458;53.678;14.080;2022-12-29T01:43:51;7.30;99.90
6841;DHT22;3458;53.678;14.080;2022-12-29T01:46:19;7.30;99.90
6841;DHT22;3458;53.678;14.080;2022-12-29T01:48:47;7.30;99.90
6841;DHT22;3458;53.678;14.080;2022-12-29T01:51:14;7.30;99.90
6841;DHT22;3458;53.678;14.080;2022-12-29T01:53:39;7.30;99.90
6841;DHT22;3458;53.678;14.080;2022-12-29T01:56:07;7.30;99.90
6841;DHT22;3458;53.678;14.080;2022-12-29T01:58:38;7.30;99.90
6841;DHT22;3458;53.678;14.080;2022-12-29T02:01:05;7.30;99.90
6841;DHT22;3458;53.678;14.080;2022-12-29T02:03:32;7.30;99.90
6841;DHT22;3458;53.678;14.080;2022-12-29T02:06:02;7.30;99.90
6841;DHT22;3458;53.678;14.080;2022-12-29T02:08:29;7.40;99.90
6841;DHT22;3458;53.678;14.080;2022-12-29T02:10:59;7.40;99.90
6841;DHT22;3458;53.678;14.080;2022-12-29T02:13:27;7.40;99.90
6841;DHT22;3458;53.678;14.080;2022-12-29T02:16:03;7.40;99.90
6841;DHT22;3458;53.678;14.080;2022-12-29T02:19:12;7.40;99.90
6841;DHT22;3458;53.678;14.080;2022-12-29T02:24:56;7.40;99.90
6841;DHT22;3458;53.678;14.080;2022-12-29T02:27:44;7.40;99.90
6841;DHT22;3458;53.678;14.080;2022-12-29T02:30:35;7.40;99.90
6841;DHT22;3458;53.678;14.080;2022-12-29T02:36:03;7.40;99.90
6841;DHT22;3458;53.678;14.080;2022-12-29T02:38:53;7.40;99.90
6841;DHT22;3458;53.678;14.080;2022-12-29T02:43:59;7.40;99.90
6841;DHT22;3458;53.678;14.080;2022-12-29T02:46:44;7.40;99.90
6841;DHT22;3458;53.678;14.080;2022-12-29T02:49:22;7.40;99.90
6841;DHT22;3458;53.678;14.080;2022-12-29T02:51:53;7.40;99.90
6841;DHT22;3458;53.678;14.080;2022-12-29T02:54:20;7.40;99.90
6841;DHT22;3458;53.678;14.080;2022-12-29T02:59:48;7.40;99.90
6841;DHT22;3458;53.678;14.080;2022-12-29T03:13:36;7.50;99.90
6841;DHT22;3458;53.678;14.080;2022-12-29T03:16:46;7.50;99.90
6841;DHT22;3458;53.678;14.080;2022-12-29T03:19:21;7.50;99.90
6841;DHT22;3458;53.678;14.080;2022-12-29T03:22:10;7.50;99.90
6841;DHT22;3458;53.678;14.080;2022-12-29T03:25:22;7.50;99.90
6841;DHT22;3458;53.678;14.080;2022-12-29T03:27:53;7.50;99.90
6841;DHT22;3458;53.678;14.080;2022-12-29T03:30:20;7.50;99.90
6841;DHT22;3458;53.678;14.080;2022-12-29T03:32:52;7.50;99.90
6841;DHT22;3458;53.678;14.080;2022-12-29T03:35:22;7.50;99.90
6841;DHT22;3458;53.678;14.080;2022-12-29T03:40:40;7.60;99.90
6841;DHT22;3458;53.678;14.080;2022-12-29T03:43:07;7.60;99.90
6841;DHT22;3458;53.678;14.080;2022-12-29T03:45:33;7.60;99.90
6841;DHT22;3458;53.678;14.080;2022-12-29T03:47:58;7.60;99.90
6841;DHT22;3458;53.678;14.080;2022-12-29T03:50:24;7.50;99.90
6841;DHT22;3458;53.678;14.080;2022-12-29T03:52:49;7.50;99.90
6841;DHT22;3458;53.678;14.080;2022-12-29T03:55:15;7.50;99.90
6841;DHT22;3458;53.678;14.080;2022-12-29T03:57:41;7.50;99.90
6841;DHT22;3458;53.678;14.080;2022-12-29T04:00:07;7.50;99.90
6841;DHT22;3458;53.678;14.080;2022-12-29T04:02:33;7.50;99.90
6841;DHT22;3458;53.678;14.080;2022-12-29T04:04:58;7.50;99.90
6841;DHT22;3458;53.678;14.080;2022-12-29T04:07:24;7.50;99.90
6841;DHT22;3458;53.678;14.080;2022-12-29T04:09:49;7.60;99.90
6841;DHT22;3458;53.678;14.080;2022-12-29T04:12:15;7.60;99.90
6841;DHT22;3458;53.678;14.080;2022-12-29T04:14:41;7.60;99.90
6841;DHT22;3458;53.678;14.080;2022-12-29T04:17:06;7.60;99.90
6841;DHT22;3458;53.678;14.080;2022-12-29T04:19:32;7.60;99.90
6841;DHT22;3458;53.678;14.080;2022-12-29T04:21:57;7.60;99.90
6841;DHT22;3458;53.678;14.080;2022-12-29T04:24:23;7.60;99.90
6841;DHT22;3458;53.678;14.080;2022-12-29T04:26:48;7.60;99.90
6841;DHT22;3458;53.678;14.080;2022-12-29T04:29:14;7.60;99.90
6841;DHT22;3458;53.678;14.080;2022-12-29T04:31:39;7.70;99.90
6841;DHT22;3458;53.678;14.080;2022-12-29T04:34:05;7.70;99.90
6841;DHT22;3458;53.678;14.080;2022-12-29T04:36:30;7.70;99.90
6841;DHT22;3458;53.678;14.080;2022-12-29T04:38:56;7.70;99.90
6841;DHT22;3458;53.678;14.080;2022-12-29T04:41:22;7.70;99.90
6841;DHT22;3458;53.678;14.080;2022-12-29T04:43:48;7.70;99.90
6841;DHT22;3458;53.678;14.080;2022-12-29T04:46:13;7.70;99.90
6841;DHT22;3458;53.678;14.080;2022-12-29T04:48:39;7.70;99.90
6841;DHT22;3458;53.678;14.080;2022-12-29T04:51:04;7.70;99.90
6841;DHT22;3458;53.678;14.080;2022-12-29T04:53:30;7.70;99.90
6841;DHT22;3458;53.678;14.080;2022-12-29T04:55:55;7.70;99.90
6841;DHT22;3458;53.678;14.080;2022-12-29T04:58:21;7.70;99.90
6841;DHT22;3458;53.678;14.080;2022-12-29T05:00:47;7.80;99.90
6841;DHT22;3458;53.678;14.080;2022-12-29T05:03:12;7.80;99.90
6841;DHT22;3458;53.678;14.080;2022-12-29T05:05:38;7.80;99.90
6841;DHT22;3458;53.678;14.080;2022-12-29T05:08:04;7.80;99.90
6841;DHT22;3458;53.678;14.080;2022-12-29T05:10:30;7.80;99.90
6841;DHT22;3458;53.678;14.080;2022-12-29T05:12:55;7.80;99.90
6841;DHT22;3458;53.678;14.080;2022-12-29T05:15:21;7.80;99.90
6841;DHT22;3458;53.678;14.080;2022-12-29T05:17:46;7.80;99.90
6841;DHT22;3458;53.678;14.080;2022-12-29T05:20:12;7.80;99.90
6841;DHT22;3458;53.678;14.080;2022-12-29T05:22:37;7.80;99.90
6841;DHT22;3458;53.678;14.080;2022-12-29T05:25:03;7.90;99.90
6841;DHT22;3458;53.678;14.080;2022-12-29T05:27:29;7.90;99.90
6841;DHT22;3458;53.678;14.080;2022-12-29T05:29:54;7.90;99.90
6841;DHT22;3458;53.678;14.080;2022-12-29T05:32:20;7.90;99.90
6841;DHT22;3458;53.678;14.080;2022-12-29T05:34:45;7.90;99.90
6841;DHT22;3458;53.678;14.080;2022-12-29T05:37:11;7.90;99.90
6841;DHT22;3458;53.678;14.080;2022-12-29T05:39:36;7.90;99.90
6841;DHT22;3458;53.678;14.080;2022-12-29T05:42:02;8.00;99.90
6841;DHT22;3458;53.678;14.080;2022-12-29T05:44:27;8.00;99.90
6841;DHT22;3458;53.678;14.080;2022-12-29T05:46:53;8.00;99.90
6841;DHT22;3458;53.678;14.080;2022-12-29T05:49:19;8.00;99.90
6841;DHT22;3458;53.678;14.080;2022-12-29T05:51:44;8.00;99.90
6841;DHT22;3458;53.678;14.080;2022-12-29T05:54:10;8.00;99.90
6841;DHT22;3458;53.678;14.080;2022-12-29T05:56:35;8.10;99.90
6841;DHT22;3458;53.678;14.080;2022-12-29T05:59:01;8.10;99.90
6841;DHT22;3458;53.678;14.080;2022-12-29T06:01:26;8.10;99.90
6841;DHT22;3458;53.678;14.080;2022-12-29T06:03:52;8.10;99.90
6841;DHT22;3458;53.678;14.080;2022-12-29T06:06:18;8.10;99.90
6841;DHT22;3458;53.678;14.080;2022-12-29T06:08:43;8.10;99.90
6841;DHT22;3458;53.678;14.080;2022-12-29T06:11:09;8.10;99.90
6841;DHT22;3458;53.678;14.080;2022-12-29T06:13:34;8.10;99.90
6841;DHT22;3458;53.678;14.080;2022-12-29T06:16:00;8.00;99.90
6841;DHT22;3458;53.678;14.080;2022-12-29T06:18:26;8.00;99.90
6841;DHT22;3458;53.678;14.080;2022-12-29T06:20:51;8.00;99.90
6841;DHT22;3458;53.678;14.080;2022-12-29T06:23:17;8.00;99.90
6841;DHT22;3458;53.678;14.080;2022-12-29T06:25:44;8.00;99.90
6841;DHT22;3458;53.678;14.080;2022-12-29T06:28:09;8.00;99.90
6841;DHT22;3458;53.678;14.080;2022-12-29T06:30:36;8.10;99.90
6841;DHT22;3458;53.678;14.080;2022-12-29T06:33:02;8.10;99.90
6841;DHT22;3458;53.678;14.080;2022-12-29T06:35:27;8.10;99.90
6841;DHT22;3458;53.678;14.080;2022-12-29T06:37:53;8.10;99.90
6841;DHT22;3458;53.678;14.080;2022-12-29T06:40:18;8.10;99.90
6841;DHT22;3458;53.678;14.080;2022-12-29T06:42:44;8.10;99.90
6841;DHT22;3458;53.678;14.080;2022-12-29T06:45:10;8.10;99.90
6841;DHT22;3458;53.678;14.080;2022-12-29T06:47:35;8.20;99.90
6841;DHT22;3458;53.678;14.080;2022-12-29T06:50:01;8.20;99.90
6841;DHT22;3458;53.678;14.080;2022-12-29T06:52:27;8.20;99.90
6841;DHT22;3458;53.678;14.080;2022-12-29T06:54:54;8.20;99.90
6841;DHT22;3458;53.678;14.080;2022-12-29T06:57:20;8.20;99.90
6841;DHT22;3458;53.678;14.080;2022-12-29T06:59:45;8.20;99.90
6841;DHT22;3458;53.678;14.080;2022-12-29T07:02:11;8.20;99.90
6841;DHT22;3458;53.678;14.080;2022-12-29T07:04:36;8.20;99.90
6841;DHT22;3458;53.678;14.080;2022-12-29T07:07:02;8.20;99.90
6841;DHT22;3458;53.678;14.080;2022-12-29T07:09:28;8.20;99.90
6841;DHT22;3458;53.678;14.080;2022-12-29T07:11:53;8.20;99.90
6841;DHT22;3458;53.678;14.080;2022-12-29T07:14:19;8.20;99.90
6841;DHT22;3458;53.678;14.080;2022-12-29T07:16:44;8.20;99.90
6841;DHT22;3458;53.678;14.080;2022-12-29T07:19:10;8.10;99.90
6841;DHT22;3458;53.678;14.080;2022-12-29T07:21:35;8.10;99.90
6841;DHT22;3458;53.678;14.080;2022-12-29T07:24:01;8.20;99.90
6841;DHT22;3458;53.678;14.080;2022-12-29T07:26:27;8.20;99.90
6841;DHT22;3458;53.678;14.080;2022-12-29T07:28:52;8.10;99.90
6841;DHT22;3458;53.678;14.080;2022-12-29T07:31:19;8.10;99.90
6841;DHT22;3458;53.678;14.080;2022-12-29T07:33:46;8.10;99.90
6841;DHT22;3458;53.678;14.080;2022-12-29T07:36:13;8.10;99.90
6841;DHT22;3458;53.678;14.080;2022-12-29T07:38:39;8.10;99.90
6841;DHT22;3458;53.678;14.080;2022-12-29T07:41:05;8.10;99.90
6841;DHT22;3458;53.678;14.080;2022-12-29T07:43:30;8.20;99.90
6841;DHT22;3458;53.678;14.080;2022-12-29T07:45:56;8.20;99.90
6841;DHT22;3458;53.678;14.080;2022-12-29T07:48:22;8.20;99.90
6841;DHT22;3458;53.678;14.080;2022-12-29T07:50:47;8.20;99.90
6841;DHT22;3458;53.678;14.080;2022-12-29T07:53:13;8.20;99.90
6841;DHT22;3458;53.678;14.080;2022-12-29T07:55:39;8.30;99.90
6841;DHT22;3458;53.678;14.080;2022-12-29T07:58:04;8.30;99.90
6841;DHT22;3458;53.678;14.080;2022-12-29T08:00:30;8.30;99.90
6841;DHT22;3458;53.678;14.080;2022-12-29T08:02:55;8.30;99.90
6841;DHT22;3458;53.678;14.080;2022-12-29T08:05:21;8.30;99.90
6841;DHT22;3458;53.678;14.080;2022-12-29T08:07:46;8.30;99.90
6841;DHT22;3458;53.678;14.080;2022-12-29T08:10:13;8.30;99.90
6841;DHT22;3458;53.678;14.080;2022-12-29T08:12:40;8.30;99.90
6841;DHT22;3458;53.678;14.080;2022-12-29T08:15:06;8.40;99.90
6841;DHT22;3458;53.678;14.080;2022-12-29T08:17:32;8.40;99.90
6841;DHT22;3458;53.678;14.080;2022-12-29T08:19:58;8.40;99.90
6841;DHT22;3458;53.678;14.080;2022-12-29T08:22:24;8.40;99.90
6841;DHT22;3458;53.678;14.080;2022-12-29T08:24:49;8.50;99.90
6841;DHT22;3458;53.678;14.080;2022-12-29T08:27:15;8.50;99.90
6841;DHT22;3458;53.678;14.080;2022-12-29T08:29:40;8.50;99.90
6841;DHT22;3458;53.678;14.080;2022-12-29T08:32:06;8.60;99.90
6841;DHT22;3458;53.678;14.080;2022-12-29T08:34:32;8.60;99.90
6841;DHT22;3458;53.678;14.080;2022-12-29T08:36:58;8.60;99.90
6841;DHT22;3458;53.678;14.080;2022-12-29T08:39:23;8.70;99.90
6841;DHT22;3458;53.678;14.080;2022-12-29T08:41:49;8.70;99.90
6841;DHT22;3458;53.678;14.080;2022-12-29T08:44:15;8.70;99.90
6841;DHT22;3458;53.678;14.080;2022-12-29T08:46:40;8.80;99.90
6841;DHT22;3458;53.678;14.080;2022-12-29T08:49:06;8.80;99.90
6841;DHT22;3458;53.678;14.080;2022-12-29T08:51:32;8.90;99.90
6841;DHT22;3458;53.678;14.080;2022-12-29T08:53:58;8.90;99.90
6841;DHT22;3458;53.678;14.080;2022-12-29T08:56:23;8.90;99.90
6841;DHT22;3458;53.678;14.080;2022-12-29T08:58:50;8.90;99.90
6841;DHT22;3458;53.678;14.080;2022-12-29T09:01:16;8.90;99.90
6841;DHT22;3458;53.678;14.080;2022-12-29T09:03:41;8.90;99.90
6841;DHT22;3458;53.678;14.080;2022-12-29T09:06:10;9.00;99.90
6841;DHT22;3458;53.678;14.080;2022-12-29T09:08:36;9.00;99.90
6841;DHT22;3458;53.678;14.080;2022-12-29T09:11:16;9.10;99.90
6841;DHT22;3458;53.678;14.080;2022-12-29T09:13:42;9.20;99.90
6841;DHT22;3458;53.678;14.080;2022-12-29T09:16:08;9.20;99.90
6841;DHT22;3458;53.678;14.080;2022-12-29T09:18:33;9.30;99.90
6841;DHT22;3458;53.678;14.080;2022-12-29T09:21:00;9.30;99.90
6841;DHT22;3458;53.678;14.080;2022-12-29T09:23:26;9.30;99.90
6841;DHT22;3458;53.678;14.080;2022-12-29T09:25:53;9.40;99.90
6841;DHT22;3458;53.678;14.080;2022-12-29T09:28:19;9.40;99.90
6841;DHT22;3458;53.678;14.080;2022-12-29T09:30:45;9.40;99.90
6841;DHT22;3458;53.678;14.080;2022-12-29T09:33:10;9.40;99.90
6841;DHT22;3458;53.678;14.080;2022-12-29T09:35:36;9.40;99.90
6841;DHT22;3458;53.678;14.080;2022-12-29T09:38:01;9.60;99.90
6841;DHT22;3458;53.678;14.080;2022-12-29T09:40:30;9.60;99.90
6841;DHT22;3458;53.678;14.080;2022-12-29T09:48:31;9.90;99.90
6841;DHT22;3458;53.678;14.080;2022-12-29T09:51:02;10.00;99.90
6841;DHT22;3458;53.678;14.080;2022-12-29T09:53:43;10.10;99.90
6841;DHT22;3458;53.678;14.080;2022-12-29T09:56:18;10.20;99.90
6841;DHT22;3458;53.678;14.080;2022-12-29T09:58:54;10.30;99.90
6841;DHT22;3458;53.678;14.080;2022-12-29T10:01:38;10.30;99.90
6841;DHT22;3458;53.678;14.080;2022-12-29T10:04:06;10.40;99.90
6841;DHT22;3458;53.678;14.080;2022-12-29T10:06:42;10.40;99.90
6841;DHT22;3458;53.678;14.080;2022-12-29T10:09:39;10.40;99.90
6841;DHT22;3458;53.678;14.080;2022-12-29T10:12:23;10.40;99.90
6841;DHT22;3458;53.678;14.080;2022-12-29T10:23:27;10.70;99.90
6841;DHT22;3458;53.678;14.080;2022-12-29T10:25:55;10.60;99.90
6841;DHT22;3458;53.678;14.080;2022-12-29T10:31:28;10.50;99.90
6841;DHT22;3458;53.678;14.080;2022-12-29T10:34:01;10.40;99.90
6841;DHT22;3458;53.678;14.080;2022-12-29T10:36:35;10.40;99.90
6841;DHT22;3458;53.678;14.080;2022-12-29T10:39:28;10.30;99.90
6841;DHT22;3458;53.678;14.080;2022-12-29T10:44:45;10.20;99.90
6841;DHT22;3458;53.678;14.080;2022-12-29T10:47:22;10.20;99.90
6841;DHT22;3458;53.678;14.080;2022-12-29T10:49:49;10.20;99.90
6841;DHT22;3458;53.678;14.080;2022-12-29T10:52:17;10.20;99.90
6841;DHT22;3458;53.678;14.080;2022-12-29T10:57:39;10.20;99.90
6841;DHT22;3458;53.678;14.080;2022-12-29T11:05:19;10.40;99.90
6841;DHT22;3458;53.678;14.080;2022-12-29T11:07:49;10.40;99.90
6841;DHT22;3458;53.678;14.080;2022-12-29T11:10:36;10.40;99.90
6841;DHT22;3458;53.678;14.080;2022-12-29T11:13:11;10.40;99.90
6841;DHT22;3458;53.678;14.080;2022-12-29T11:15:48;10.40;99.90
6841;DHT22;3458;53.678;14.080;2022-12-29T11:20:56;10.50;99.90
6841;DHT22;3458;53.678;14.080;2022-12-29T11:23:39;10.60;99.90
6841;DHT22;3458;53.678;14.080;2022-12-29T11:26:11;10.70;99.90
6841;DHT22;3458;53.678;14.080;2022-12-29T11:28:39;10.80;99.90
6841;DHT22;3458;53.678;14.080;2022-12-29T11:31:06;10.90;99.90
6841;DHT22;3458;53.678;14.080;2022-12-29T11:33:34;11.10;99.90
6841;DHT22;3458;53.678;14.080;2022-12-29T11:36:15;11.20;99.90
6841;DHT22;3458;53.678;14.080;2022-12-29T11:38:46;11.30;99.90
6841;DHT22;3458;53.678;14.080;2022-12-29T11:41:13;11.40;99.90
6841;DHT22;3458;53.678;14.080;2022-12-29T11:43:44;11.30;99.90
6841;DHT22;3458;53.678;14.080;2022-12-29T11:46:29;11.30;99.90
6841;DHT22;3458;53.678;14.080;2022-12-29T11:48:56;11.30;99.90
6841;DHT22;3458;53.678;14.080;2022-12-29T11:51:39;11.20;99.90
6841;DHT22;3458;53.678;14.080;2022-12-29T11:54:09;11.20;99.90
6841;DHT22;3458;53.678;14.080;2022-12-29T11:56:40;11.20;99.90
6841;DHT22;3458;53.678;14.080;2022-12-29T11:59:39;11.30;99.90
6841;DHT22;3458;53.678;14.080;2022-12-29T12:02:31;11.40;99.90
6841;DHT22;3458;53.678;14.080;2022-12-29T12:05:09;11.40;99.90
6841;DHT22;3458;53.678;14.080;2022-12-29T12:07:44;11.40;99.90
6841;DHT22;3458;53.678;14.080;2022-12-29T12:10:18;11.40;99.90
6841;DHT22;3458;53.678;14.080;2022-12-29T12:13:02;11.30;99.90
6841;DHT22;3458;53.678;14.080;2022-12-29T12:15:40;11.30;99.90
6841;DHT22;3458;53.678;14.080;2022-12-29T12:18:16;11.20;99.90
6841;DHT22;3458;53.678;14.080;2022-12-29T12:20:52;11.10;99.90
6841;DHT22;3458;53.678;14.080;2022-12-29T12:23:36;11.10;99.90
6841;DHT22;3458;53.678;14.080;2022-12-29T12:26:20;11.10;99.90
6841;DHT22;3458;53.678;14.080;2022-12-29T12:28:56;11.10;99.90
6841;DHT22;3458;53.678;14.080;2022-12-29T12:31:57;11.10;99.90
6841;DHT22;3458;53.678;14.080;2022-12-29T12:34:32;11.20;99.90
6841;DHT22;3458;53.678;14.080;2022-12-29T12:40:19;11.10;99.90
6841;DHT22;3458;53.678;14.080;2022-12-29T12:45:41;11.10;99.90
6841;DHT22;3458;53.678;14.080;2022-12-29T13:01:58;11.40;99.90
6841;DHT22;3458;53.678;14.080;2022-12-29T13:04:37;11.40;99.90
6841;DHT22;3458;53.678;14.080;2022-12-29T13:07:29;11.50;99.90
6841;DHT22;3458;53.678;14.080;2022-12-29T13:10:16;11.50;99.90
6841;DHT22;3458;53.678;14.080;2022-12-29T13:12:48;11.50;99.90
6841;DHT22;3458;53.678;14.080;2022-12-29T13:18:15;11.60;99.90
6841;DHT22;3458;53.678;14.080;2022-12-29T13:20:50;11.70;99.90
6841;DHT22;3458;53.678;14.080;2022-12-29T13:26:50;11.70;99.90
6841;DHT22;3458;53.678;14.080;2022-12-29T13:29:40;11.90;99.90
6841;DHT22;3458;53.678;14.080;2022-12-29T13:35:34;12.60;99.90
6841;DHT22;3458;53.678;14.080;2022-12-29T13:38:17;12.50;99.90
6841;DHT22;3458;53.678;14.080;2022-12-29T13:40:47;12.30;99.90
6841;DHT22;3458;53.678;14.080;2022-12-29T13:43:15;12.10;99.90
6841;DHT22;3458;53.678;14.080;2022-12-29T13:45:41;12.00;99.90
6841;DHT22;3458;53.678;14.080;2022-12-29T13:48:16;12.10;99.90
6841;DHT22;3458;53.678;14.080;2022-12-29T13:50:46;12.30;99.90
6841;DHT22;3458;53.678;14.080;2022-12-29T13:56:03;12.20;99.90
6841;DHT22;3458;53.678;14.080;2022-12-29T13:58:46;12.00;99.90
6841;DHT22;3458;53.678;14.080;2022-12-29T14:04:23;11.80;99.90
6841;DHT22;3458;53.678;14.080;2022-12-29T14:07:11;11.60;99.90
6841;DHT22;3458;53.678;14.080;2022-12-29T14:09:50;11.50;99.90
6841;DHT22;3458;53.678;14.080;2022-12-29T14:14:50;11.30;99.90
6841;DHT22;3458;53.678;14.080;2022-12-29T14:17:19;11.20;99.90
6841;DHT22;3458;53.678;14.080;2022-12-29T14:19:45;11.20;99.90
6841;DHT22;3458;53.678;14.080;2022-12-29T14:22:12;11.10;99.90
6841;DHT22;3458;53.678;14.080;2022-12-29T14:24:43;11.20;99.90
6841;DHT22;3458;53.678;14.080;2022-12-29T14:34:53;10.90;99.90
6841;DHT22;3458;53.678;14.080;2022-12-29T14:37:23;10.80;99.90
6841;DHT22;3458;53.678;14.080;2022-12-29T14:40:06;10.70;99.90
6841;DHT22;3458;53.678;14.080;2022-12-29T14:42:39;10.60;99.90
6841;DHT22;3458;53.678;14.080;2022-12-29T14:45:27;10.50;99.90
6841;DHT22;3458;53.678;14.080;2022-12-29T14:47:53;10.40;99.90
6841;DHT22;3458;53.678;14.080;2022-12-29T14:50:24;10.40;99.90
6841;DHT22;3458;53.678;14.080;2022-12-29T14:55:45;10.20;99.90
6841;DHT22;3458;53.678;14.080;2022-12-29T14:58:31;10.20;99.90
6841;DHT22;3458;53.678;14.080;2022-12-29T15:00:58;10.20;99.90
6841;DHT22;3458;53.678;14.080;2022-12-29T15:03:29;10.10;99.90
6841;DHT22;3458;53.678;14.080;2022-12-29T15:06:15;10.10;99.90
6841;DHT22;3458;53.678;14.080;2022-12-29T15:11:44;10.00;99.90
6841;DHT22;3458;53.678;14.080;2022-12-29T15:14:31;10.00;99.90
6841;DHT22;3458;53.678;14.080;2022-12-29T15:16:57;10.00;99.90
6841;DHT22;3458;53.678;14.080;2022-12-29T15:19:24;10.00;99.90
6841;DHT22;3458;53.678;14.080;2022-12-29T15:21:50;10.00;99.90
6841;DHT22;3458;53.678;14.080;2022-12-29T15:24:17;10.10;99.90
6841;DHT22;3458;53.678;14.080;2022-12-29T15:26:45;10.10;99.90
6841;DHT22;3458;53.678;14.080;2022-12-29T15:29:36;10.10;99.90
6841;DHT22;3458;53.678;14.080;2022-12-29T15:34:44;10.20;99.90
6841;DHT22;3458;53.678;14.080;2022-12-29T15:37:21;10.10;99.90
6841;DHT22;3458;53.678;14.080;2022-12-29T15:39:47;10.10;99.90
6841;DHT22;3458;53.678;14.080;2022-12-29T15:42:29;10.10;99.90
6841;DHT22;3458;53.678;14.080;2022-12-29T15:44:58;10.10;99.90
6841;DHT22;3458;53.678;14.080;2022-12-29T15:47:29;10.10;99.90
6841;DHT22;3458;53.678;14.080;2022-12-29T15:50:22;10.10;99.90
6841;DHT22;3458;53.678;14.080;2022-12-29T15:52:49;10.10;99.90
6841;DHT22;3458;53.678;14.080;2022-12-29T15:55:35;10.10;99.90
6841;DHT22;3458;53.678;14.080;2022-12-29T15:58:03;10.10;99.90
6841;DHT22;3458;53.678;14.080;2022-12-29T16:00:34;10.10;99.90
6841;DHT22;3458;53.678;14.080;2022-12-29T16:03:04;10.10;99.90
6841;DHT22;3458;53.678;14.080;2022-12-29T16:05:34;10.00;99.90
6841;DHT22;3458;53.678;14.080;2022-12-29T16:08:00;10.10;99.90
6841;DHT22;3458;53.678;14.080;2022-12-29T16:10:36;10.10;99.90
6841;DHT22;3458;53.678;14.080;2022-12-29T16:15:41;10.10;99.90
6841;DHT22;3458;53.678;14.080;2022-12-29T16:18:23;10.00;99.90
6841;DHT22;3458;53.678;14.080;2022-12-29T16:20:50;10.00;99.90
6841;DHT22;3458;53.678;14.080;2022-12-29T16:23:23;10.00;99.90
6841;DHT22;3458;53.678;14.080;2022-12-29T16:25:49;10.00;99.90
6841;DHT22;3458;53.678;14.080;2022-12-29T16:28:18;10.00;99.90
6841;DHT22;3458;53.678;14.080;2022-12-29T16:30:44;10.00;99.90
6841;DHT22;3458;53.678;14.080;2022-12-29T16:33:35;10.00;99.90
6841;DHT22;3458;53.678;14.080;2022-12-29T16:36:01;10.00;99.90
6841;DHT22;3458;53.678;14.080;2022-12-29T16:38:31;10.00;99.90
6841;DHT22;3458;53.678;14.080;2022-12-29T16:40:59;10.00;99.90
6841;DHT22;3458;53.678;14.080;2022-12-29T16:43:29;10.00;99.90
6841;DHT22;3458;53.678;14.080;2022-12-29T16:51:06;9.90;99.90
6841;DHT22;3458;53.678;14.080;2022-12-29T16:53:38;10.00;99.90
6841;DHT22;3458;53.678;14.080;2022-12-29T16:56:15;10.00;99.90
6841;DHT22;3458;53.678;14.080;2022-12-29T16:58:46;10.00;99.90
6841;DHT22;3458;53.678;14.080;2022-12-29T17:01:12;10.00;99.90
6841;DHT22;3458;53.678;14.080;2022-12-29T17:03:51;10.00;99.90
6841;DHT22;3458;53.678;14.080;2022-12-29T17:06:20;10.00;99.90
6841;DHT22;3458;53.678;14.080;2022-12-29T17:08:46;10.10;99.90
6841;DHT22;3458;53.678;14.080;2022-12-29T17:11:32;10.10;99.90
6841;DHT22;3458;53.678;14.080;2022-12-29T17:17:04;10.20;99.90
6841;DHT22;3458;53.678;14.080;2022-12-29T17:19:32;10.20;99.90
6841;DHT22;3458;53.678;14.080;2022-12-29T17:21:59;10.20;99.90
6841;DHT22;3458;53.678;14.080;2022-12-29T17:24:25;10.20;99.90
6841;DHT22;3458;53.678;14.080;2022-12-29T17:26:57;10.20;99.90
6841;DHT22;3458;53.678;14.080;2022-12-29T17:29:38;10.20;99.90
6841;DHT22;3458;53.678;14.080;2022-12-29T17:32:06;10.30;99.90
6841;DHT22;3458;53.678;14.080;2022-12-29T17:34:35;10.30;99.90
6841;DHT22;3458;53.678;14.080;2022-12-29T17:37:00;10.20;99.90
6841;DHT22;3458;53.678;14.080;2022-12-29T17:39:26;10.20;99.90
6841;DHT22;3458;53.678;14.080;2022-12-29T17:41:52;10.10;99.90
6841;DHT22;3458;53.678;14.080;2022-12-29T17:44:19;10.10;99.90
6841;DHT22;3458;53.678;14.080;2022-12-29T17:46:46;10.10;99.90
6841;DHT22;3458;53.678;14.080;2022-12-29T17:49:17;10.10;99.90
6841;DHT22;3458;53.678;14.080;2022-12-29T17:51:44;10.10;99.90
6841;DHT22;3458;53.678;14.080;2022-12-29T17:54:22;10.10;99.90
6841;DHT22;3458;53.678;14.080;2022-12-29T17:56:48;10.00;99.90
6841;DHT22;3458;53.678;14.080;2022-12-29T17:59:14;10.10;99.90
6841;DHT22;3458;53.678;14.080;2022-12-29T18:01:43;10.10;99.90
6841;DHT22;3458;53.678;14.080;2022-12-29T18:04:19;10.10;99.90
6841;DHT22;3458;53.678;14.080;2022-12-29T18:06:45;10.00;99.90
6841;DHT22;3458;53.678;14.080;2022-12-29T18:09:12;10.00;99.90
6841;DHT22;3458;53.678;14.080;2022-12-29T18:11:39;10.00;99.90
6841;DHT22;3458;53.678;14.080;2022-12-29T18:14:11;10.00;99.90
6841;DHT22;3458;53.678;14.080;2022-12-29T18:16:37;10.00;99.90
6841;DHT22;3458;53.678;14.080;2022-12-29T18:19:03;10.00;99.90
6841;DHT22;3458;53.678;14.080;2022-12-29T18:21:29;10.00;99.90